createdAt,value
2019-04-14T00:00:51.688Z,23.03
2019-04-14T00:03:32.497Z,23.40
2019-04-14T00:06:02.674Z,23.17
2019-04-14T00:08:30.593Z,23.97
2019-04-14T00:10:59.311Z,23.20
2019-04-14T00:13:27.040Z,24.50
2019-04-14T00:15:55.026Z,24.83
2019-04-14T00:18:23.024Z,26.17
2019-04-14T00:20:51.216Z,26.37
2019-04-14T00:23:19.498Z,25.40
2019-04-14T00:25:47.646Z,26.37
2019-04-14T00:28:16.352Z,26.43
2019-04-14T00:30:44.777Z,27.43
2019-04-14T00:33:14.816Z,26.10
2019-04-14T00:36:00.246Z,25.70
2019-04-14T00:38:41.051Z,25.57
2019-04-14T00:41:43.408Z,28.73
2019-04-14T00:44:23.209Z,28.60
2019-04-14T00:46:55.977Z,27.77
2019-04-14T00:49:24.685Z,26.53
2019-04-14T00:51:52.793Z,28.97
2019-04-14T00:54:21.679Z,27.73
2019-04-14T00:56:49.863Z,29.57
2019-04-14T00:59:17.921Z,29.17
2019-04-14T01:01:45.943Z,30.87
2019-04-14T01:04:14.361Z,30.87
2019-04-14T01:06:44.714Z,30.13
2019-04-14T01:09:15.146Z,30.77
2019-04-14T01:11:42.886Z,29.47
2019-04-14T01:14:10.563Z,30.43
2019-04-14T01:16:38.583Z,31.63
2019-04-14T01:19:06.879Z,29.50
2019-04-14T01:21:34.934Z,32.33
2019-04-14T01:24:03.209Z,29.70
2019-04-14T01:26:31.100Z,31.07
2019-04-14T01:28:59.347Z,31.77
2019-04-14T01:31:27.385Z,31.77
2019-04-14T01:33:55.523Z,31.03
2019-04-14T01:36:23.515Z,33.03
2019-04-14T01:38:51.382Z,32.60
2019-04-14T01:41:19.371Z,31.43
2019-04-14T01:43:47.439Z,32.70
2019-04-14T01:46:20.962Z,31.70
2019-04-14T01:48:45.360Z,33.40
2019-04-14T01:51:48.428Z,32.50
2019-04-14T01:54:34.503Z,33.57
2019-04-14T01:57:20.485Z,33.20
2019-04-14T01:59:48.295Z,31.73
2019-04-14T02:02:18.948Z,33.13
2019-04-14T02:04:46.583Z,33.50
2019-04-14T02:07:14.476Z,32.77
2019-04-14T02:09:42.488Z,32.47
2019-04-14T02:12:10.575Z,34.13
2019-04-14T02:14:38.704Z,33.33
2019-04-14T02:17:07.714Z,33.30
2019-04-14T02:19:37.066Z,32.77
2019-04-14T02:22:05.187Z,34.17
2019-04-14T02:24:33.128Z,32.03
2019-04-14T02:27:01.261Z,32.70
2019-04-14T02:29:29.771Z,35.87
2019-04-14T02:32:27.277Z,35.30
2019-04-14T02:37:26.703Z,35.37
2019-04-14T02:39:54.026Z,35.07
2019-04-14T02:44:51.619Z,36.10
2019-04-14T02:49:50.638Z,33.93
2019-04-14T02:57:26.809Z,37.67
2019-04-14T03:07:21.488Z,36.80
2019-04-14T03:09:47.048Z,28.40
2019-04-14T03:12:19.241Z,34.00
2019-04-14T03:14:47.421Z,33.07
2019-04-14T03:18:00.074Z,35.23
2019-04-14T03:20:57.306Z,34.03
2019-04-14T03:23:30.360Z,34.67
2019-04-14T03:25:43.047Z,34.77
2019-04-14T03:31:46.804Z,35.03
2019-04-14T03:34:29.876Z,34.83
2019-04-14T03:43:54.537Z,35.27
2019-04-14T03:46:19.655Z,34.67
2019-04-14T03:51:17.465Z,33.77
2019-04-14T03:53:39.830Z,34.00
2019-04-14T03:56:09.176Z,33.57
2019-04-14T03:58:35.742Z,33.00
2019-04-14T04:01:04.042Z,34.87
2019-04-14T04:03:32.487Z,34.90
2019-04-14T04:06:00.782Z,32.17
2019-04-14T04:08:29.112Z,31.73
2019-04-14T04:10:57.609Z,31.30
2019-04-14T04:13:25.965Z,28.83
2019-04-14T04:15:56.231Z,31.43
2019-04-14T04:18:26.572Z,30.23
2019-04-14T04:21:13.965Z,30.17
2019-04-14T04:23:46.808Z,29.50
2019-04-14T04:26:34.383Z,30.00
2019-04-14T04:29:28.804Z,30.43
2019-04-14T04:32:14.579Z,29.70
2019-04-14T04:35:10.819Z,29.93
2019-04-14T04:38:00.915Z,31.33
2019-04-14T04:40:31.096Z,29.30
2019-04-14T04:42:59.142Z,30.70
2019-04-14T04:45:27.799Z,30.43
2019-04-14T04:47:55.639Z,29.30
2019-04-14T04:50:23.875Z,29.10
2019-04-14T04:52:51.821Z,31.37
2019-04-14T04:55:19.847Z,30.27
2019-04-14T04:57:48.157Z,29.63
2019-04-14T05:00:15.943Z,30.30
2019-04-14T05:02:43.908Z,31.17
2019-04-14T05:05:29.981Z,28.13
2019-04-14T05:07:57.640Z,29.83
2019-04-14T05:10:39.585Z,32.43
2019-04-14T05:13:14.164Z,29.67
2019-04-14T05:15:48.798Z,31.63
2019-04-14T05:18:22.836Z,31.73
2019-04-14T05:20:51.010Z,29.67
2019-04-14T05:23:19.091Z,29.27
2019-04-14T05:25:47.385Z,28.93
2019-04-14T05:28:15.611Z,31.03
2019-04-14T05:30:43.640Z,29.50
2019-04-14T05:33:12.105Z,30.30
2019-04-14T05:35:40.143Z,29.70
2019-04-14T05:38:08.454Z,29.63
2019-04-14T05:40:36.447Z,28.07
2019-04-14T05:43:04.554Z,28.70
2019-04-14T05:45:32.780Z,28.70
2019-04-14T05:48:01.080Z,27.83
2019-04-14T05:50:29.238Z,29.80
2019-04-14T05:52:57.838Z,28.30
2019-04-14T05:55:26.317Z,28.20
2019-04-14T05:57:54.543Z,28.90
2019-04-14T06:00:25.563Z,27.63
2019-04-14T06:02:53.285Z,29.23
2019-04-14T06:05:21.144Z,28.90
2019-04-14T06:07:48.844Z,28.53
2019-04-14T06:10:16.581Z,28.23
2019-04-14T06:12:44.290Z,27.87
2019-04-14T06:15:12.115Z,27.17
2019-04-14T06:17:39.735Z,27.93
2019-04-14T06:20:07.350Z,28.17
2019-04-14T06:22:34.972Z,27.30
2019-04-14T06:25:02.656Z,26.87
2019-04-14T06:27:30.362Z,27.03
2019-04-14T06:30:05.171Z,27.23
2019-04-14T06:32:39.090Z,26.20
2019-04-14T06:35:24.807Z,27.30
2019-04-14T06:37:56.517Z,26.07
2019-04-14T06:40:25.028Z,27.63
2019-04-14T06:42:52.844Z,27.13
2019-04-14T06:45:20.518Z,27.67
2019-04-14T06:47:48.140Z,28.40
2019-04-14T06:50:15.947Z,26.30
2019-04-14T06:52:43.827Z,29.23
2019-04-14T06:55:11.608Z,28.73
2019-04-14T06:57:39.370Z,26.50
2019-04-14T07:00:07.104Z,28.97
2019-04-14T07:03:00.119Z,28.87
2019-04-14T07:05:27.802Z,29.00
2019-04-14T07:07:57.205Z,28.40
2019-04-14T07:10:25.125Z,27.80
2019-04-14T07:12:52.765Z,26.73
2019-04-14T07:15:20.411Z,28.00
2019-04-14T07:17:48.039Z,27.47
2019-04-14T07:20:15.697Z,27.50
2019-04-14T07:22:43.374Z,27.07
2019-04-14T07:25:10.998Z,26.40
2019-04-14T07:27:38.624Z,26.53
2019-04-14T07:30:31.748Z,27.73
2019-04-14T07:33:15.238Z,26.50
2019-04-14T07:36:00.531Z,27.57
2019-04-14T07:38:34.267Z,25.80
2019-04-14T07:41:17.767Z,27.90
2019-04-14T07:44:02.061Z,26.37
2019-04-14T07:46:51.947Z,26.93
2019-04-14T07:49:36.252Z,25.17
2019-04-14T07:52:26.121Z,27.67
2019-04-14T07:55:11.835Z,26.43
2019-04-14T07:58:01.719Z,26.40
2019-04-14T08:00:40.042Z,24.97
2019-04-14T08:03:25.825Z,25.13
2019-04-14T08:05:53.637Z,25.93
2019-04-14T08:08:21.387Z,24.83
2019-04-14T08:10:49.006Z,24.23
2019-04-14T08:13:16.750Z,23.47
2019-04-14T08:15:44.362Z,24.20
2019-04-14T08:18:12.006Z,25.13
2019-04-14T08:20:39.643Z,23.97
2019-04-14T08:23:07.262Z,23.83
2019-04-14T08:25:34.870Z,23.43
2019-04-14T08:28:03.066Z,23.87
2019-04-14T08:30:30.683Z,22.93
2019-04-14T08:32:58.342Z,23.67
2019-04-14T08:35:25.958Z,24.93
2019-04-14T08:37:53.610Z,23.37
2019-04-14T08:40:21.266Z,23.30
2019-04-14T08:43:10.665Z,22.63
2019-04-14T08:45:51.232Z,22.53
2019-04-14T08:48:37.344Z,23.70
2019-04-14T08:51:10.127Z,24.40
2019-04-14T08:54:12.235Z,24.30
2019-04-14T08:56:46.291Z,24.03
2019-04-14T08:59:33.706Z,25.30
2019-04-14T09:02:23.366Z,23.80
2019-04-14T09:05:16.310Z,23.90
2019-04-14T09:07:49.927Z,23.53
2019-04-14T09:10:21.967Z,22.47
2019-04-14T09:12:50.788Z,23.93
2019-04-14T09:15:18.391Z,23.87
2019-04-14T09:17:46.056Z,23.73
2019-04-14T09:20:13.702Z,22.90
2019-04-14T09:22:41.374Z,24.20
2019-04-14T09:25:08.957Z,22.30
2019-04-14T09:27:36.603Z,22.90
2019-04-14T09:30:04.905Z,21.20
2019-04-14T09:32:33.768Z,20.37
2019-04-14T09:35:01.351Z,21.27
2019-04-14T09:37:29.008Z,20.60
2019-04-14T09:39:56.623Z,20.40
2019-04-14T09:42:24.252Z,21.03
2019-04-14T09:44:51.844Z,20.37
2019-04-14T09:47:19.477Z,18.83
2019-04-14T09:49:47.076Z,19.07
2019-04-14T09:52:14.678Z,17.27
2019-04-14T09:54:42.330Z,18.43
2019-04-14T09:57:09.963Z,17.30
2019-04-14T09:59:37.666Z,16.23
2019-04-14T10:02:05.275Z,16.33
2019-04-14T10:04:32.951Z,15.63
2019-04-14T10:07:00.583Z,16.00
2019-04-14T10:09:28.286Z,17.00
2019-04-14T10:11:56.774Z,15.97
2019-04-14T10:14:24.445Z,15.37
2019-04-14T10:16:52.002Z,15.33
2019-04-14T10:19:19.623Z,15.60
2019-04-14T10:21:47.285Z,15.83
2019-04-14T10:24:14.938Z,15.37
2019-04-14T10:26:42.534Z,15.10
2019-04-14T10:29:10.181Z,13.77
2019-04-14T10:31:37.781Z,14.37
2019-04-14T10:34:05.446Z,14.07
2019-04-14T10:36:33.066Z,14.97
2019-04-14T10:39:00.811Z,14.43
2019-04-14T10:41:28.468Z,14.73
2019-04-14T10:43:56.117Z,14.87
2019-04-14T10:46:23.787Z,14.13
2019-04-14T10:48:51.437Z,15.07
2019-04-14T10:51:29.504Z,14.03
2019-04-14T10:53:48.492Z,14.10
2019-04-14T10:56:16.141Z,14.27
2019-04-14T10:58:43.797Z,14.47
2019-04-14T11:01:19.740Z,14.07
2019-04-14T11:03:47.425Z,14.07
2019-04-14T11:06:40.655Z,14.17
2019-04-14T11:09:12.856Z,14.50
2019-04-14T11:11:40.473Z,14.00
2019-04-14T11:14:08.115Z,13.10
2019-04-14T11:16:35.694Z,13.20
2019-04-14T11:19:03.340Z,12.83
2019-04-14T11:21:41.902Z,13.27
2019-04-14T11:24:01.076Z,14.77
2019-04-14T11:26:28.685Z,13.20
2019-04-14T11:28:56.253Z,13.83
2019-04-14T11:31:45.946Z,12.90
2019-04-14T11:34:14.275Z,13.73
2019-04-14T11:36:53.137Z,14.07
2019-04-14T11:39:20.740Z,14.13
2019-04-14T11:41:48.359Z,14.30
2019-04-14T11:44:15.911Z,13.53
2019-04-14T11:46:43.582Z,13.40
2019-04-14T11:49:11.154Z,14.07
2019-04-14T11:51:38.785Z,13.63
2019-04-14T11:54:06.386Z,12.90
2019-04-14T11:56:33.988Z,12.80
2019-04-14T11:59:01.542Z,13.50
2019-04-14T12:01:48.640Z,12.37
2019-04-14T12:04:25.820Z,12.70
2019-04-14T12:07:11.723Z,12.35
2019-04-14T12:09:58.807Z,13.73
2019-04-14T12:12:26.474Z,13.08
2019-04-14T12:14:54.093Z,13.03
2019-04-14T12:17:21.743Z,12.68
2019-04-14T12:19:49.358Z,12.83
2019-04-14T12:22:16.996Z,12.73
2019-04-14T12:24:44.617Z,13.25
2019-04-14T12:27:12.276Z,12.30
2019-04-14T12:29:41.120Z,13.08
2019-04-14T12:32:10.634Z,13.38
2019-04-14T12:34:38.513Z,12.33
2019-04-14T12:37:06.133Z,12.57
2019-04-14T12:39:33.751Z,13.53
2019-04-14T12:42:19.433Z,12.75
2019-04-14T12:44:53.416Z,13.08
2019-04-14T12:47:40.650Z,12.90
2019-04-14T12:50:16.720Z,12.07
2019-04-14T12:52:44.370Z,13.67
2019-04-14T12:55:11.964Z,14.13
2019-04-14T12:57:47.506Z,12.45
2019-04-14T13:00:37.618Z,12.82
2019-04-14T13:03:05.300Z,13.98
2019-04-14T13:05:32.887Z,13.50
2019-04-14T13:08:00.560Z,12.60
2019-04-14T13:10:28.180Z,13.25
2019-04-14T13:13:07.976Z,13.35
2019-04-14T13:15:35.530Z,14.40
2019-04-14T13:18:03.209Z,15.18
2019-04-14T13:20:30.856Z,13.78
2019-04-14T13:22:58.503Z,14.37
2019-04-14T13:25:26.127Z,15.47
2019-04-14T13:27:53.760Z,15.03
2019-04-14T13:30:26.478Z,16.20
2019-04-14T13:32:54.081Z,14.43
2019-04-14T13:35:21.725Z,15.08
2019-04-14T13:37:49.318Z,15.40
2019-04-14T13:40:16.908Z,15.23
2019-04-14T13:42:44.476Z,15.32
2019-04-14T13:45:12.060Z,14.73
2019-04-14T13:47:39.627Z,14.70
2019-04-14T13:50:07.288Z,15.48
2019-04-14T13:52:46.044Z,14.23
2019-04-14T13:55:07.067Z,14.53
2019-04-14T13:57:34.626Z,14.13
2019-04-14T14:00:02.257Z,15.40
2019-04-14T14:02:29.942Z,14.03
2019-04-14T14:04:57.578Z,14.03
2019-04-14T14:07:25.164Z,15.20
2019-04-14T14:09:52.833Z,14.28
2019-04-14T14:12:39.942Z,16.47
2019-04-14T14:15:30.523Z,14.57
2019-04-14T14:18:16.469Z,15.73
2019-04-14T14:21:12.408Z,14.93
2019-04-14T14:23:55.131Z,16.63
2019-04-14T14:26:24.035Z,14.90
2019-04-14T14:28:51.645Z,14.57
2019-04-14T14:31:31.402Z,15.37
2019-04-14T14:33:59.070Z,14.97
2019-04-14T14:36:26.711Z,15.70
2019-04-14T14:38:54.301Z,15.18
2019-04-14T14:41:21.931Z,14.23
2019-04-14T14:43:49.524Z,15.10
2019-04-14T14:46:39.192Z,13.95
2019-04-14T14:49:27.460Z,13.85
2019-04-14T14:52:07.017Z,13.80
2019-04-14T14:54:34.562Z,14.25
2019-04-14T14:57:02.184Z,14.05
2019-04-14T14:59:29.786Z,13.83
2019-04-14T15:01:57.419Z,13.28
2019-04-14T15:04:24.977Z,13.22
2019-04-14T15:06:52.803Z,13.00
2019-04-14T15:09:20.415Z,14.45
2019-04-14T15:11:47.990Z,13.70
2019-04-14T15:14:15.568Z,13.15
2019-04-14T15:16:43.128Z,13.30
2019-04-14T15:19:10.725Z,12.82
2019-04-14T15:21:38.322Z,13.58
2019-04-14T15:24:06.003Z,13.47
2019-04-14T15:26:33.621Z,13.97
2019-04-14T15:29:01.186Z,12.83
2019-04-14T15:31:28.840Z,13.40
2019-04-14T15:33:56.449Z,13.43
2019-04-14T15:36:24.127Z,14.10
2019-04-14T15:38:51.727Z,13.63
2019-04-14T15:41:20.589Z,12.87
2019-04-14T15:43:48.140Z,14.63
2019-04-14T15:46:15.747Z,14.30
2019-04-14T15:48:43.311Z,12.37
2019-04-14T15:51:10.916Z,13.80
2019-04-14T15:53:38.615Z,13.33
2019-04-14T15:56:07.073Z,12.43
2019-04-14T15:58:55.632Z,12.27
2019-04-14T16:01:41.719Z,13.20
2019-04-14T16:04:29.197Z,13.93
2019-04-14T16:07:26.720Z,12.83
2019-04-14T16:10:32.380Z,12.37
2019-04-14T16:13:08.268Z,12.90
2019-04-14T16:15:58.364Z,12.50
2019-04-14T16:18:54.522Z,13.30
2019-04-14T16:21:22.076Z,12.03
2019-04-14T16:23:51.613Z,11.97
2019-04-14T16:26:24.383Z,12.07
2019-04-14T16:29:06.354Z,11.87
2019-04-14T16:31:53.416Z,11.67
2019-04-14T16:34:24.873Z,12.83
2019-04-14T16:36:52.503Z,11.80
2019-04-14T16:39:20.159Z,12.17
2019-04-14T16:41:47.665Z,12.60
2019-04-14T16:44:15.265Z,11.60
2019-04-14T16:46:42.817Z,11.50
2019-04-14T16:49:10.413Z,10.97
2019-04-14T16:51:51.239Z,12.07
2019-04-14T16:54:25.550Z,11.73
2019-04-14T16:57:18.502Z,11.63
2019-04-14T16:59:46.081Z,12.17
2019-04-14T17:02:13.645Z,12.50
2019-04-14T17:04:41.275Z,12.47
2019-04-14T17:07:08.822Z,12.60
2019-04-14T17:09:36.416Z,12.23
2019-04-14T17:12:03.962Z,13.37
2019-04-14T17:14:44.666Z,12.53
2019-04-14T17:17:30.379Z,11.87
2019-04-14T17:20:06.583Z,13.03
2019-04-14T17:23:05.430Z,11.57
2019-04-14T17:25:41.530Z,12.57
2019-04-14T17:28:27.495Z,11.63
2019-04-14T17:31:20.569Z,11.30
2019-04-14T17:33:54.751Z,11.77
2019-04-14T17:36:35.895Z,11.57
2019-04-14T17:39:14.720Z,12.67
2019-04-14T17:41:56.339Z,12.63
2019-04-14T17:44:40.797Z,11.73
2019-04-14T17:47:36.868Z,12.60
2019-04-14T17:50:24.527Z,12.10
2019-04-14T17:53:06.730Z,10.70
2019-04-14T17:55:56.316Z,11.60
2019-04-14T17:58:34.391Z,10.23
2019-04-14T18:01:12.742Z,11.17
2019-04-14T18:03:44.045Z,10.70
2019-04-14T18:06:19.522Z,10.60
2019-04-14T18:09:18.444Z,10.73
2019-04-14T18:12:04.116Z,10.97
2019-04-14T18:14:57.042Z,10.23
2019-04-14T18:17:41.013Z,10.20
2019-04-14T18:20:12.585Z,10.17
2019-04-14T18:22:40.199Z,10.43
2019-04-14T18:25:08.049Z,10.73
2019-04-14T18:27:44.928Z,10.63
2019-04-14T18:30:25.653Z,12.13
2019-04-14T18:33:21.732Z,12.30
2019-04-14T18:35:53.439Z,11.73
2019-04-14T18:38:38.544Z,11.60
2019-04-14T18:41:31.699Z,11.97
2019-04-14T18:44:09.951Z,10.33
2019-04-14T18:46:57.087Z,11.23
2019-04-14T18:49:37.539Z,10.50
2019-04-14T18:52:13.514Z,10.80
2019-04-14T18:55:09.783Z,10.73
2019-04-14T18:57:45.279Z,10.47
2019-04-14T19:00:36.174Z,10.53
2019-04-14T19:03:03.823Z,10.50
2019-04-14T19:05:31.386Z,10.30
2019-04-14T19:07:58.978Z,11.50
2019-04-14T19:10:26.562Z,11.13
2019-04-14T19:13:03.078Z,11.50
2019-04-14T19:15:35.202Z,11.13
2019-04-14T19:18:13.801Z,11.50
2019-04-14T19:20:44.401Z,11.57
2019-04-14T19:23:12.062Z,11.60
2019-04-14T19:25:39.607Z,11.80
2019-04-14T19:28:07.195Z,11.87
2019-04-14T19:30:34.792Z,11.17
2019-04-14T19:33:02.392Z,11.27
2019-04-14T19:35:29.959Z,10.87
2019-04-14T19:37:57.528Z,11.13
2019-04-14T19:40:25.104Z,10.67
2019-04-14T19:42:52.675Z,10.73
2019-04-14T19:45:20.264Z,11.23
2019-04-14T19:47:47.840Z,11.33
2019-04-14T19:50:15.410Z,11.33
2019-04-14T19:52:42.959Z,11.43
2019-04-14T19:55:19.884Z,11.10
2019-04-14T19:57:39.968Z,11.53
2019-04-14T20:00:08.832Z,10.90
2019-04-14T20:02:36.391Z,11.20
2019-04-14T20:05:04.170Z,12.07
2019-04-14T20:07:31.997Z,11.30
2019-04-14T20:09:59.583Z,11.90
2019-04-14T20:12:27.138Z,11.90
2019-04-14T20:14:54.765Z,11.73
2019-04-14T20:17:36.707Z,11.80
2019-04-14T20:20:17.463Z,11.77
2019-04-14T20:22:59.392Z,11.50
2019-04-14T20:25:46.467Z,11.87
2019-04-14T20:28:20.180Z,11.53
2019-04-14T20:31:12.309Z,11.53
2019-04-14T20:33:39.918Z,12.27
2019-04-14T20:36:08.022Z,12.10
2019-04-14T20:38:35.562Z,11.37
2019-04-14T20:41:03.161Z,11.30
2019-04-14T20:43:31.803Z,12.00
2019-04-14T20:45:59.362Z,11.67
2019-04-14T20:48:26.914Z,11.90
2019-04-14T20:50:54.493Z,11.57
2019-04-14T20:53:24.962Z,12.77
2019-04-14T20:55:51.431Z,13.17
2019-04-14T20:58:18.977Z,11.47
2019-04-14T21:00:46.572Z,11.83
2019-04-14T21:03:22.474Z,11.33
2019-04-14T21:05:59.286Z,11.60
2019-04-14T21:08:44.996Z,10.47
2019-04-14T21:11:34.826Z,9.97
2019-04-14T21:14:18.861Z,10.00
2019-04-14T21:16:52.596Z,10.00
2019-04-14T21:19:39.708Z,9.97
2019-04-14T21:22:23.601Z,10.13
2019-04-14T21:25:01.946Z,11.43
2019-04-14T21:28:04.406Z,10.40
2019-04-14T21:30:46.259Z,11.27
2019-04-14T21:33:28.059Z,11.13
2019-04-14T21:36:09.842Z,12.07
2019-04-14T21:39:08.930Z,11.57
2019-04-14T21:41:36.550Z,11.97
2019-04-14T21:44:04.132Z,12.07
2019-04-14T21:46:31.740Z,12.17
2019-04-14T21:48:59.334Z,12.57
2019-04-14T21:51:46.550Z,13.07
2019-04-14T21:54:14.081Z,13.03
2019-04-14T21:56:41.948Z,13.23
2019-04-14T21:59:15.764Z,13.37
2019-04-14T22:02:20.939Z,12.43
2019-04-14T22:05:07.274Z,13.43
2019-04-14T22:08:00.552Z,13.10
2019-04-14T22:10:37.499Z,13.80
2019-04-14T22:13:05.077Z,12.53
2019-04-14T22:15:32.685Z,12.43
2019-04-14T22:18:00.263Z,12.83
2019-04-14T22:20:27.842Z,13.97
2019-04-14T22:22:55.427Z,13.07
2019-04-14T22:25:22.984Z,12.77
2019-04-14T22:27:50.561Z,13.40
2019-04-14T22:30:18.099Z,13.07
2019-04-14T22:32:45.658Z,13.63
2019-04-14T22:35:13.282Z,12.73
2019-04-14T22:37:40.871Z,12.77
2019-04-14T22:40:08.495Z,12.23
2019-04-14T22:42:36.068Z,13.13
2019-04-14T22:45:04.119Z,12.90
2019-04-14T22:47:31.794Z,12.73
2019-04-14T22:50:09.738Z,12.23
2019-04-14T22:52:37.319Z,12.67
2019-04-14T22:55:05.106Z,12.13
2019-04-14T22:57:32.653Z,11.57
2019-04-14T23:00:00.265Z,12.17
2019-04-14T23:02:42.128Z,10.00
2019-04-14T23:05:28.101Z,11.23
2019-04-14T23:08:18.153Z,10.40
2019-04-14T23:11:01.281Z,8.23
2019-04-14T23:13:54.438Z,11.63
2019-04-14T23:16:37.859Z,10.53
2019-04-14T23:19:09.808Z,10.70
2019-04-14T23:21:44.308Z,9.97
2019-04-14T23:24:17.658Z,9.83
2019-04-14T23:26:52.521Z,10.03
2019-04-14T23:29:15.091Z,9.93
2019-04-14T23:31:45.112Z,10.07
2019-04-14T23:34:13.452Z,10.33
2019-04-14T23:36:41.660Z,9.80
2019-04-14T23:39:11.905Z,10.37
2019-04-14T23:41:39.913Z,9.77
2019-04-14T23:44:07.479Z,10.37
2019-04-14T23:46:35.065Z,9.97
2019-04-14T23:49:02.794Z,10.87
2019-04-14T23:51:30.382Z,10.50
2019-04-14T23:53:57.933Z,10.23
2019-04-14T23:56:25.524Z,10.73
2019-04-14T23:58:53.062Z,10.03
